sensor_id;sensor_type;location;lat;lon;timestamp;P1;durP1;ratioP1;P2;durP2;ratioP2
43419;SDS011;29017;51.514;-0.178;2023-05-20T00:01:48;9.35;;;3.10;;
43419;SDS011;29017;51.514;-0.178;2023-05-20T00:04:15;10.32;;;3.50;;
43419;SDS011;29017;51.514;-0.178;2023-05-20T00:06:42;8.20;;;2.90;;
43419;SDS011;29017;51.514;-0.178;2023-05-20T00:09:09;7.38;;;2.85;;
43419;SDS011;29017;51.514;-0.178;2023-05-20T00:11:36;9.55;;;3.55;;
43419;SDS011;29017;51.514;-0.178;2023-05-20T00:14:05;10.73;;;3.13;;
43419;SDS011;29017;51.514;-0.178;2023-05-20T00:16:32;9.18;;;3.15;;
43419;SDS011;29017;51.514;-0.178;2023-05-20T00:18:59;9.60;;;2.80;;
43419;SDS011;29017;51.514;-0.178;2023-05-20T00:21:26;7.15;;;2.50;;
43419;SDS011;29017;51.514;-0.178;2023-05-20T00:23:53;9.60;;;2.95;;
43419;SDS011;29017;51.514;-0.178;2023-05-20T00:26:21;9.23;;;2.58;;
43419;SDS011;29017;51.514;-0.178;2023-05-20T00:28:48;8.05;;;2.78;;
43419;SDS011;29017;51.514;-0.178;2023-05-20T00:31:15;9.70;;;3.08;;
43419;SDS011;29017;51.514;-0.178;2023-05-20T00:33:42;7.18;;;2.35;;
43419;SDS011;29017;51.514;-0.178;2023-05-20T00:36:09;8.65;;;2.53;;
43419;SDS011;29017;51.514;-0.178;2023-05-20T00:38:36;7.95;;;3.17;;
43419;SDS011;29017;51.514;-0.178;2023-05-20T00:41:03;11.98;;;2.80;;
43419;SDS011;29017;51.514;-0.178;2023-05-20T00:43:30;5.88;;;2.30;;
43419;SDS011;29017;51.514;-0.178;2023-05-20T00:45:57;6.88;;;2.22;;
43419;SDS011;29017;51.514;-0.178;2023-05-20T00:48:24;17.00;;;3.38;;
43419;SDS011;29017;51.514;-0.178;2023-05-20T00:50:51;7.47;;;2.80;;
43419;SDS011;29017;51.514;-0.178;2023-05-20T00:53:18;7.43;;;2.72;;
43419;SDS011;29017;51.514;-0.178;2023-05-20T00:55:47;10.20;;;2.80;;
43419;SDS011;29017;51.514;-0.178;2023-05-20T00:58:14;9.18;;;2.90;;
43419;SDS011;29017;51.514;-0.178;2023-05-20T01:00:41;8.85;;;3.20;;
43419;SDS011;29017;51.514;-0.178;2023-05-20T01:03:08;10.10;;;2.78;;
43419;SDS011;29017;51.514;-0.178;2023-05-20T01:05:35;8.45;;;2.47;;
43419;SDS011;29017;51.514;-0.178;2023-05-20T01:08:05;7.88;;;2.95;;
43419;SDS011;29017;51.514;-0.178;2023-05-20T01:10:33;12.00;;;3.53;;
43419;SDS011;29017;51.514;-0.178;2023-05-20T01:13:06;6.85;;;2.72;;
43419;SDS011;29017;51.514;-0.178;2023-05-20T01:15:36;10.85;;;3.35;;
43419;SDS011;29017;51.514;-0.178;2023-05-20T01:18:06;13.32;;;3.13;;
43419;SDS011;29017;51.514;-0.178;2023-05-20T01:20:36;12.43;;;3.90;;
43419;SDS011;29017;51.514;-0.178;2023-05-20T01:23:04;11.18;;;2.60;;
43419;SDS011;29017;51.514;-0.178;2023-05-20T01:25:31;9.50;;;2.70;;
43419;SDS011;29017;51.514;-0.178;2023-05-20T01:27:59;5.93;;;2.65;;
43419;SDS011;29017;51.514;-0.178;2023-05-20T01:30:28;8.50;;;3.47;;
43419;SDS011;29017;51.514;-0.178;2023-05-20T01:33:10;8.63;;;3.83;;
43419;SDS011;29017;51.514;-0.178;2023-05-20T01:35:39;11.60;;;3.10;;
43419;SDS011;29017;51.514;-0.178;2023-05-20T01:38:07;10.13;;;3.22;;
43419;SDS011;29017;51.514;-0.178;2023-05-20T01:40:34;12.27;;;3.53;;
43419;SDS011;29017;51.514;-0.178;2023-05-20T01:43:02;12.30;;;3.03;;
43419;SDS011;29017;51.514;-0.178;2023-05-20T01:45:29;7.72;;;3.40;;
43419;SDS011;29017;51.514;-0.178;2023-05-20T01:47:57;9.18;;;3.83;;
43419;SDS011;29017;51.514;-0.178;2023-05-20T01:50:24;11.10;;;3.33;;
43419;SDS011;29017;51.514;-0.178;2023-05-20T01:52:52;9.00;;;3.63;;
43419;SDS011;29017;51.514;-0.178;2023-05-20T01:55:19;10.55;;;4.30;;
43419;SDS011;29017;51.514;-0.178;2023-05-20T01:57:46;8.57;;;3.70;;
43419;SDS011;29017;51.514;-0.178;2023-05-20T02:00:13;8.75;;;3.72;;
43419;SDS011;29017;51.514;-0.178;2023-05-20T02:02:40;10.40;;;3.53;;
43419;SDS011;29017;51.514;-0.178;2023-05-20T02:05:08;12.15;;;3.95;;
43419;SDS011;29017;51.514;-0.178;2023-05-20T02:07:35;9.18;;;3.13;;
43419;SDS011;29017;51.514;-0.178;2023-05-20T02:10:02;10.27;;;3.08;;
43419;SDS011;29017;51.514;-0.178;2023-05-20T02:12:29;11.98;;;3.58;;
43419;SDS011;29017;51.514;-0.178;2023-05-20T02:14:56;8.80;;;3.30;;
43419;SDS011;29017;51.514;-0.178;2023-05-20T02:17:23;12.07;;;3.40;;
43419;SDS011;29017;51.514;-0.178;2023-05-20T02:19:50;11.20;;;3.53;;
43419;SDS011;29017;51.514;-0.178;2023-05-20T02:22:18;9.95;;;3.40;;
43419;SDS011;29017;51.514;-0.178;2023-05-20T02:24:45;10.35;;;3.70;;
43419;SDS011;29017;51.514;-0.178;2023-05-20T02:27:12;11.52;;;3.40;;
43419;SDS011;29017;51.514;-0.178;2023-05-20T02:29:39;9.25;;;3.40;;
43419;SDS011;29017;51.514;-0.178;2023-05-20T02:32:06;12.80;;;3.72;;
43419;SDS011;29017;51.514;-0.178;2023-05-20T02:34:33;9.65;;;3.60;;
43419;SDS011;29017;51.514;-0.178;2023-05-20T02:36:59;8.77;;;3.03;;
43419;SDS011;29017;51.514;-0.178;2023-05-20T02:39:26;10.15;;;3.63;;
43419;SDS011;29017;51.514;-0.178;2023-05-20T02:41:54;14.80;;;3.72;;
43419;SDS011;29017;51.514;-0.178;2023-05-20T02:44:21;10.05;;;4.30;;
43419;SDS011;29017;51.514;-0.178;2023-05-20T02:46:48;9.82;;;4.28;;
43419;SDS011;29017;51.514;-0.178;2023-05-20T02:49:16;9.73;;;3.67;;
43419;SDS011;29017;51.514;-0.178;2023-05-20T02:51:42;8.48;;;3.50;;
43419;SDS011;29017;51.514;-0.178;2023-05-20T02:54:09;13.23;;;3.67;;
43419;SDS011;29017;51.514;-0.178;2023-05-20T02:56:37;10.90;;;4.13;;
43419;SDS011;29017;51.514;-0.178;2023-05-20T02:59:04;15.88;;;4.05;;
43419;SDS011;29017;51.514;-0.178;2023-05-20T03:01:32;9.55;;;3.45;;
43419;SDS011;29017;51.514;-0.178;2023-05-20T03:04:01;12.63;;;4.60;;
43419;SDS011;29017;51.514;-0.178;2023-05-20T03:06:29;9.07;;;3.75;;
43419;SDS011;29017;51.514;-0.178;2023-05-20T03:08:57;10.95;;;4.18;;
43419;SDS011;29017;51.514;-0.178;2023-05-20T03:11:25;11.38;;;4.80;;
43419;SDS011;29017;51.514;-0.178;2023-05-20T03:13:52;15.52;;;4.90;;
43419;SDS011;29017;51.514;-0.178;2023-05-20T03:16:19;13.30;;;4.32;;
43419;SDS011;29017;51.514;-0.178;2023-05-20T03:18:46;11.93;;;5.20;;
43419;SDS011;29017;51.514;-0.178;2023-05-20T03:21:13;13.63;;;5.22;;
43419;SDS011;29017;51.514;-0.178;2023-05-20T03:23:40;14.20;;;5.05;;
43419;SDS011;29017;51.514;-0.178;2023-05-20T03:26:07;12.05;;;5.70;;
43419;SDS011;29017;51.514;-0.178;2023-05-20T03:28:34;14.05;;;4.95;;
43419;SDS011;29017;51.514;-0.178;2023-05-20T03:31:01;15.20;;;4.70;;
43419;SDS011;29017;51.514;-0.178;2023-05-20T03:33:28;13.02;;;5.50;;
43419;SDS011;29017;51.514;-0.178;2023-05-20T03:35:56;15.15;;;5.80;;
43419;SDS011;29017;51.514;-0.178;2023-05-20T03:38:23;11.70;;;5.00;;
43419;SDS011;29017;51.514;-0.178;2023-05-20T03:40:51;15.60;;;5.15;;
43419;SDS011;29017;51.514;-0.178;2023-05-20T03:43:17;13.75;;;5.72;;
43419;SDS011;29017;51.514;-0.178;2023-05-20T03:45:44;10.95;;;5.28;;
43419;SDS011;29017;51.514;-0.178;2023-05-20T03:48:11;16.20;;;6.43;;
43419;SDS011;29017;51.514;-0.178;2023-05-20T03:50:38;14.05;;;5.38;;
43419;SDS011;29017;51.514;-0.178;2023-05-20T03:53:05;12.30;;;5.45;;
43419;SDS011;29017;51.514;-0.178;2023-05-20T03:55:32;12.88;;;5.25;;
43419;SDS011;29017;51.514;-0.178;2023-05-20T03:58:00;14.98;;;5.30;;
43419;SDS011;29017;51.514;-0.178;2023-05-20T04:00:27;16.48;;;6.10;;
43419;SDS011;29017;51.514;-0.178;2023-05-20T04:02:57;14.75;;;5.35;;
43419;SDS011;29017;51.514;-0.178;2023-05-20T04:05:24;14.52;;;5.05;;
43419;SDS011;29017;51.514;-0.178;2023-05-20T04:07:51;15.45;;;6.20;;
43419;SDS011;29017;51.514;-0.178;2023-05-20T04:10:18;12.15;;;5.25;;
43419;SDS011;29017;51.514;-0.178;2023-05-20T04:12:46;17.63;;;5.68;;
43419;SDS011;29017;51.514;-0.178;2023-05-20T04:15:13;12.85;;;5.57;;
43419;SDS011;29017;51.514;-0.178;2023-05-20T04:17:40;10.68;;;4.85;;
43419;SDS011;29017;51.514;-0.178;2023-05-20T04:20:08;16.63;;;5.30;;
43419;SDS011;29017;51.514;-0.178;2023-05-20T04:22:36;16.23;;;5.43;;
43419;SDS011;29017;51.514;-0.178;2023-05-20T04:25:05;20.90;;;6.90;;
43419;SDS011;29017;51.514;-0.178;2023-05-20T04:27:32;10.90;;;4.40;;
43419;SDS011;29017;51.514;-0.178;2023-05-20T04:29:59;12.95;;;4.68;;
43419;SDS011;29017;51.514;-0.178;2023-05-20T04:32:28;16.83;;;5.82;;
43419;SDS011;29017;51.514;-0.178;2023-05-20T04:34:55;14.55;;;5.10;;
43419;SDS011;29017;51.514;-0.178;2023-05-20T04:37:22;12.93;;;4.78;;
43419;SDS011;29017;51.514;-0.178;2023-05-20T04:39:50;14.02;;;5.38;;
43419;SDS011;29017;51.514;-0.178;2023-05-20T04:42:18;13.70;;;5.40;;
43419;SDS011;29017;51.514;-0.178;2023-05-20T04:44:47;11.85;;;5.40;;
43419;SDS011;29017;51.514;-0.178;2023-05-20T04:47:14;13.70;;;4.93;;
43419;SDS011;29017;51.514;-0.178;2023-05-20T04:49:41;13.77;;;5.70;;
43419;SDS011;29017;51.514;-0.178;2023-05-20T04:52:08;12.70;;;5.22;;
43419;SDS011;29017;51.514;-0.178;2023-05-20T04:54:35;12.43;;;5.40;;
43419;SDS011;29017;51.514;-0.178;2023-05-20T04:57:02;14.50;;;5.20;;
43419;SDS011;29017;51.514;-0.178;2023-05-20T04:59:29;13.80;;;5.68;;
43419;SDS011;29017;51.514;-0.178;2023-05-20T05:01:56;13.13;;;6.07;;
43419;SDS011;29017;51.514;-0.178;2023-05-20T05:04:23;14.98;;;5.70;;
43419;SDS011;29017;51.514;-0.178;2023-05-20T05:06:50;11.07;;;5.32;;
43419;SDS011;29017;51.514;-0.178;2023-05-20T05:09:17;13.05;;;5.65;;
43419;SDS011;29017;51.514;-0.178;2023-05-20T05:11:44;15.60;;;6.13;;
43419;SDS011;29017;51.514;-0.178;2023-05-20T05:14:11;13.73;;;4.90;;
43419;SDS011;29017;51.514;-0.178;2023-05-20T05:16:38;16.52;;;5.72;;
43419;SDS011;29017;51.514;-0.178;2023-05-20T05:19:05;16.38;;;5.03;;
43419;SDS011;29017;51.514;-0.178;2023-05-20T05:21:32;18.50;;;6.10;;
43419;SDS011;29017;51.514;-0.178;2023-05-20T05:23:59;13.30;;;5.68;;
43419;SDS011;29017;51.514;-0.178;2023-05-20T05:26:26;13.23;;;5.18;;
43419;SDS011;29017;51.514;-0.178;2023-05-20T05:28:53;14.48;;;5.53;;
43419;SDS011;29017;51.514;-0.178;2023-05-20T05:31:20;14.82;;;6.00;;
43419;SDS011;29017;51.514;-0.178;2023-05-20T05:33:47;14.15;;;5.68;;
43419;SDS011;29017;51.514;-0.178;2023-05-20T05:36:15;13.68;;;5.72;;
43419;SDS011;29017;51.514;-0.178;2023-05-20T05:38:42;13.45;;;5.18;;
43419;SDS011;29017;51.514;-0.178;2023-05-20T05:41:09;11.85;;;4.90;;
43419;SDS011;29017;51.514;-0.178;2023-05-20T05:43:36;13.52;;;5.25;;
43419;SDS011;29017;51.514;-0.178;2023-05-20T05:46:09;13.80;;;5.53;;
43419;SDS011;29017;51.514;-0.178;2023-05-20T05:48:36;12.10;;;5.40;;
43419;SDS011;29017;51.514;-0.178;2023-05-20T05:51:03;14.02;;;5.40;;
43419;SDS011;29017;51.514;-0.178;2023-05-20T05:53:30;14.10;;;5.85;;
43419;SDS011;29017;51.514;-0.178;2023-05-20T05:56:05;15.15;;;5.95;;
43419;SDS011;29017;51.514;-0.178;2023-05-20T05:58:32;12.48;;;5.38;;
43419;SDS011;29017;51.514;-0.178;2023-05-20T06:00:59;10.60;;;4.93;;
43419;SDS011;29017;51.514;-0.178;2023-05-20T06:03:27;13.23;;;4.85;;
43419;SDS011;29017;51.514;-0.178;2023-05-20T06:05:55;16.73;;;5.43;;
43419;SDS011;29017;51.514;-0.178;2023-05-20T06:08:22;16.65;;;5.50;;
43419;SDS011;29017;51.514;-0.178;2023-05-20T06:10:49;12.52;;;5.43;;
43419;SDS011;29017;51.514;-0.178;2023-05-20T06:13:16;15.45;;;5.55;;
43419;SDS011;29017;51.514;-0.178;2023-05-20T06:15:44;11.88;;;5.40;;
43419;SDS011;29017;51.514;-0.178;2023-05-20T06:18:11;15.32;;;5.60;;
43419;SDS011;29017;51.514;-0.178;2023-05-20T06:20:38;12.68;;;5.53;;
43419;SDS011;29017;51.514;-0.178;2023-05-20T06:23:06;11.05;;;5.38;;
43419;SDS011;29017;51.514;-0.178;2023-05-20T06:25:33;16.02;;;5.32;;
43419;SDS011;29017;51.514;-0.178;2023-05-20T06:28:00;19.00;;;5.57;;
43419;SDS011;29017;51.514;-0.178;2023-05-20T06:30:27;14.30;;;6.00;;
43419;SDS011;29017;51.514;-0.178;2023-05-20T06:32:54;11.85;;;5.13;;
43419;SDS011;29017;51.514;-0.178;2023-05-20T06:35:21;15.27;;;5.40;;
43419;SDS011;29017;51.514;-0.178;2023-05-20T06:37:48;16.63;;;5.82;;
43419;SDS011;29017;51.514;-0.178;2023-05-20T06:40:15;13.32;;;5.60;;
43419;SDS011;29017;51.514;-0.178;2023-05-20T06:42:42;15.68;;;5.85;;
43419;SDS011;29017;51.514;-0.178;2023-05-20T06:45:09;17.15;;;6.47;;
43419;SDS011;29017;51.514;-0.178;2023-05-20T06:47:37;12.75;;;6.20;;
43419;SDS011;29017;51.514;-0.178;2023-05-20T06:50:04;15.52;;;6.28;;
43419;SDS011;29017;51.514;-0.178;2023-05-20T06:52:31;16.92;;;6.57;;
43419;SDS011;29017;51.514;-0.178;2023-05-20T06:54:58;16.08;;;5.53;;
43419;SDS011;29017;51.514;-0.178;2023-05-20T06:57:25;15.98;;;5.88;;
43419;SDS011;29017;51.514;-0.178;2023-05-20T06:59:52;14.48;;;6.75;;
43419;SDS011;29017;51.514;-0.178;2023-05-20T07:02:20;18.08;;;6.55;;
43419;SDS011;29017;51.514;-0.178;2023-05-20T07:04:48;15.27;;;5.57;;
43419;SDS011;29017;51.514;-0.178;2023-05-20T07:07:15;15.52;;;6.00;;
43419;SDS011;29017;51.514;-0.178;2023-05-20T07:09:42;13.75;;;6.35;;
43419;SDS011;29017;51.514;-0.178;2023-05-20T07:12:09;14.68;;;6.00;;
43419;SDS011;29017;51.514;-0.178;2023-05-20T07:14:36;16.70;;;6.07;;
43419;SDS011;29017;51.514;-0.178;2023-05-20T07:17:03;13.60;;;6.63;;
43419;SDS011;29017;51.514;-0.178;2023-05-20T07:19:31;15.27;;;5.88;;
43419;SDS011;29017;51.514;-0.178;2023-05-20T07:21:59;12.68;;;6.00;;
43419;SDS011;29017;51.514;-0.178;2023-05-20T07:24:26;14.50;;;5.90;;
43419;SDS011;29017;51.514;-0.178;2023-05-20T07:26:53;19.27;;;6.30;;
43419;SDS011;29017;51.514;-0.178;2023-05-20T07:29:20;18.00;;;6.47;;
43419;SDS011;29017;51.514;-0.178;2023-05-20T07:31:47;18.88;;;7.65;;
43419;SDS011;29017;51.514;-0.178;2023-05-20T07:34:14;15.90;;;6.30;;
43419;SDS011;29017;51.514;-0.178;2023-05-20T07:36:41;18.92;;;7.03;;
43419;SDS011;29017;51.514;-0.178;2023-05-20T07:39:09;17.98;;;7.50;;
43419;SDS011;29017;51.514;-0.178;2023-05-20T07:41:40;16.75;;;6.80;;
43419;SDS011;29017;51.514;-0.178;2023-05-20T07:44:07;19.42;;;6.47;;
43419;SDS011;29017;51.514;-0.178;2023-05-20T07:46:37;13.13;;;6.20;;
43419;SDS011;29017;51.514;-0.178;2023-05-20T07:49:04;12.82;;;6.13;;
43419;SDS011;29017;51.514;-0.178;2023-05-20T07:51:31;19.27;;;7.00;;
43419;SDS011;29017;51.514;-0.178;2023-05-20T07:54:01;10.52;;;5.93;;
43419;SDS011;29017;51.514;-0.178;2023-05-20T07:56:29;14.70;;;5.50;;
43419;SDS011;29017;51.514;-0.178;2023-05-20T07:58:57;16.48;;;5.75;;
43419;SDS011;29017;51.514;-0.178;2023-05-20T08:01:25;12.60;;;6.90;;
43419;SDS011;29017;51.514;-0.178;2023-05-20T08:03:53;15.57;;;5.97;;
43419;SDS011;29017;51.514;-0.178;2023-05-20T08:06:21;14.10;;;5.15;;
43419;SDS011;29017;51.514;-0.178;2023-05-20T08:09:00;15.05;;;4.97;;
43419;SDS011;29017;51.514;-0.178;2023-05-20T08:11:28;12.48;;;5.28;;
43419;SDS011;29017;51.514;-0.178;2023-05-20T08:13:55;11.65;;;4.63;;
43419;SDS011;29017;51.514;-0.178;2023-05-20T08:16:23;20.60;;;5.47;;
43419;SDS011;29017;51.514;-0.178;2023-05-20T08:18:52;14.30;;;5.20;;
43419;SDS011;29017;51.514;-0.178;2023-05-20T08:21:19;15.85;;;5.13;;
43419;SDS011;29017;51.514;-0.178;2023-05-20T08:23:47;11.32;;;4.65;;
43419;SDS011;29017;51.514;-0.178;2023-05-20T08:26:16;12.25;;;4.60;;
43419;SDS011;29017;51.514;-0.178;2023-05-20T08:28:47;11.23;;;4.70;;
43419;SDS011;29017;51.514;-0.178;2023-05-20T08:31:15;33.50;;;5.43;;
43419;SDS011;29017;51.514;-0.178;2023-05-20T08:33:43;14.98;;;4.35;;
43419;SDS011;29017;51.514;-0.178;2023-05-20T08:36:10;10.02;;;5.00;;
43419;SDS011;29017;51.514;-0.178;2023-05-20T08:38:38;16.55;;;4.18;;
43419;SDS011;29017;51.514;-0.178;2023-05-20T08:41:05;10.02;;;4.07;;
43419;SDS011;29017;51.514;-0.178;2023-05-20T08:43:32;16.70;;;4.63;;
43419;SDS011;29017;51.514;-0.178;2023-05-20T08:46:00;9.77;;;4.13;;
43419;SDS011;29017;51.514;-0.178;2023-05-20T08:48:50;14.23;;;3.95;;
43419;SDS011;29017;51.514;-0.178;2023-05-20T08:51:19;10.77;;;3.10;;
43419;SDS011;29017;51.514;-0.178;2023-05-20T08:53:49;14.18;;;3.60;;
43419;SDS011;29017;51.514;-0.178;2023-05-20T08:56:20;9.93;;;3.38;;
43419;SDS011;29017;51.514;-0.178;2023-05-20T08:58:56;8.60;;;3.70;;
43419;SDS011;29017;51.514;-0.178;2023-05-20T09:01:23;9.63;;;3.30;;
43419;SDS011;29017;51.514;-0.178;2023-05-20T09:03:52;16.90;;;3.47;;
43419;SDS011;29017;51.514;-0.178;2023-05-20T09:06:20;12.80;;;3.40;;
43419;SDS011;29017;51.514;-0.178;2023-05-20T09:08:51;11.30;;;3.13;;
43419;SDS011;29017;51.514;-0.178;2023-05-20T09:11:19;8.52;;;3.67;;
43419;SDS011;29017;51.514;-0.178;2023-05-20T09:13:48;8.73;;;3.38;;
43419;SDS011;29017;51.514;-0.178;2023-05-20T09:16:16;6.28;;;2.53;;
43419;SDS011;29017;51.514;-0.178;2023-05-20T09:18:44;10.65;;;3.10;;
43419;SDS011;29017;51.514;-0.178;2023-05-20T09:21:12;8.57;;;2.90;;
43419;SDS011;29017;51.514;-0.178;2023-05-20T09:23:39;9.10;;;3.47;;
43419;SDS011;29017;51.514;-0.178;2023-05-20T09:26:06;10.02;;;3.47;;
43419;SDS011;29017;51.514;-0.178;2023-05-20T09:28:33;10.70;;;3.22;;
43419;SDS011;29017;51.514;-0.178;2023-05-20T09:31:04;9.43;;;2.80;;
43419;SDS011;29017;51.514;-0.178;2023-05-20T09:33:32;9.73;;;2.80;;
43419;SDS011;29017;51.514;-0.178;2023-05-20T09:36:06;7.07;;;2.40;;
43419;SDS011;29017;51.514;-0.178;2023-05-20T09:38:36;12.07;;;3.55;;
43419;SDS011;29017;51.514;-0.178;2023-05-20T09:41:06;10.02;;;2.50;;
43419;SDS011;29017;51.514;-0.178;2023-05-20T09:43:38;9.32;;;2.25;;
43419;SDS011;29017;51.514;-0.178;2023-05-20T09:46:06;9.68;;;3.40;;
43419;SDS011;29017;51.514;-0.178;2023-05-20T09:48:35;12.15;;;2.72;;
43419;SDS011;29017;51.514;-0.178;2023-05-20T09:51:03;6.47;;;2.03;;
43419;SDS011;29017;51.514;-0.178;2023-05-20T09:53:32;6.10;;;2.40;;
43419;SDS011;29017;51.514;-0.178;2023-05-20T09:56:06;8.30;;;2.30;;
43419;SDS011;29017;51.514;-0.178;2023-05-20T09:58:35;8.48;;;2.13;;
43419;SDS011;29017;51.514;-0.178;2023-05-20T10:01:02;10.80;;;2.25;;
43419;SDS011;29017;51.514;-0.178;2023-05-20T10:03:31;10.85;;;2.20;;
43419;SDS011;29017;51.514;-0.178;2023-05-20T10:14:04;11.52;;;2.17;;
43419;SDS011;29017;51.514;-0.178;2023-05-20T10:19:26;7.05;;;1.92;;
43419;SDS011;29017;51.514;-0.178;2023-05-20T10:22:00;8.45;;;2.30;;
43419;SDS011;29017;51.514;-0.178;2023-05-20T10:24:29;9.57;;;1.83;;
43419;SDS011;29017;51.514;-0.178;2023-05-20T10:27:01;7.40;;;1.80;;
43419;SDS011;29017;51.514;-0.178;2023-05-20T10:29:29;10.75;;;1.85;;
43419;SDS011;29017;51.514;-0.178;2023-05-20T10:32:08;15.02;;;2.28;;
43419;SDS011;29017;51.514;-0.178;2023-05-20T10:34:43;7.03;;;1.42;;
43419;SDS011;29017;51.514;-0.178;2023-05-20T10:40:01;10.45;;;1.77;;
43419;SDS011;29017;51.514;-0.178;2023-05-20T10:42:31;8.68;;;2.17;;
43419;SDS011;29017;51.514;-0.178;2023-05-20T10:44:58;7.00;;;1.73;;
43419;SDS011;29017;51.514;-0.178;2023-05-20T10:47:27;9.57;;;1.73;;
43419;SDS011;29017;51.514;-0.178;2023-05-20T10:49:54;8.73;;;1.30;;
43419;SDS011;29017;51.514;-0.178;2023-05-20T10:52:21;5.97;;;1.48;;
43419;SDS011;29017;51.514;-0.178;2023-05-20T10:57:22;4.85;;;1.77;;
43419;SDS011;29017;51.514;-0.178;2023-05-20T10:59:50;5.45;;;1.35;;
43419;SDS011;29017;51.514;-0.178;2023-05-20T11:02:18;6.43;;;1.33;;
43419;SDS011;29017;51.514;-0.178;2023-05-20T11:04:49;7.57;;;1.65;;
43419;SDS011;29017;51.514;-0.178;2023-05-20T11:09:55;4.10;;;1.13;;
43419;SDS011;29017;51.514;-0.178;2023-05-20T11:12:23;3.92;;;1.00;;
43419;SDS011;29017;51.514;-0.178;2023-05-20T11:14:52;7.18;;;1.35;;
43419;SDS011;29017;51.514;-0.178;2023-05-20T11:17:21;5.88;;;1.15;;
43419;SDS011;29017;51.514;-0.178;2023-05-20T11:19:49;6.20;;;1.08;;
43419;SDS011;29017;51.514;-0.178;2023-05-20T11:22:16;6.70;;;1.05;;
43419;SDS011;29017;51.514;-0.178;2023-05-20T11:24:43;11.88;;;1.17;;
43419;SDS011;29017;51.514;-0.178;2023-05-20T11:27:10;6.47;;;1.27;;
43419;SDS011;29017;51.514;-0.178;2023-05-20T11:29:38;6.22;;;1.00;;
43419;SDS011;29017;51.514;-0.178;2023-05-20T11:32:06;7.68;;;1.10;;
43419;SDS011;29017;51.514;-0.178;2023-05-20T11:34:34;7.63;;;0.90;;
43419;SDS011;29017;51.514;-0.178;2023-05-20T11:37:06;4.55;;;0.80;;
43419;SDS011;29017;51.514;-0.178;2023-05-20T11:39:35;7.38;;;1.25;;
43419;SDS011;29017;51.514;-0.178;2023-05-20T11:42:03;4.68;;;0.85;;
43419;SDS011;29017;51.514;-0.178;2023-05-20T11:44:32;3.78;;;0.82;;
43419;SDS011;29017;51.514;-0.178;2023-05-20T11:47:00;5.32;;;0.90;;
43419;SDS011;29017;51.514;-0.178;2023-05-20T11:49:29;4.25;;;0.80;;
43419;SDS011;29017;51.514;-0.178;2023-05-20T11:52:06;9.25;;;0.70;;
43419;SDS011;29017;51.514;-0.178;2023-05-20T11:54:35;3.88;;;0.70;;
43419;SDS011;29017;51.514;-0.178;2023-05-20T11:57:02;6.70;;;0.82;;
43419;SDS011;29017;51.514;-0.178;2023-05-20T11:59:32;3.97;;;0.70;;
43419;SDS011;29017;51.514;-0.178;2023-05-20T12:02:00;2.30;;;0.90;;
43419;SDS011;29017;51.514;-0.178;2023-05-20T12:04:27;5.55;;;0.90;;
43419;SDS011;29017;51.514;-0.178;2023-05-20T12:06:54;4.40;;;0.85;;
43419;SDS011;29017;51.514;-0.178;2023-05-20T12:09:22;2.10;;;0.60;;
43419;SDS011;29017;51.514;-0.178;2023-05-20T12:11:49;4.30;;;0.82;;
43419;SDS011;29017;51.514;-0.178;2023-05-20T12:14:16;5.40;;;0.82;;
43419;SDS011;29017;51.514;-0.178;2023-05-20T12:16:43;7.57;;;0.80;;
43419;SDS011;29017;51.514;-0.178;2023-05-20T12:19:11;5.70;;;0.93;;
43419;SDS011;29017;51.514;-0.178;2023-05-20T12:21:38;5.82;;;0.93;;
43419;SDS011;29017;51.514;-0.178;2023-05-20T12:24:05;4.70;;;0.90;;
43419;SDS011;29017;51.514;-0.178;2023-05-20T12:26:34;9.40;;;1.05;;
43419;SDS011;29017;51.514;-0.178;2023-05-20T12:29:01;4.82;;;1.10;;
43419;SDS011;29017;51.514;-0.178;2023-05-20T12:31:28;6.82;;;1.10;;
43419;SDS011;29017;51.514;-0.178;2023-05-20T12:33:59;4.50;;;0.80;;
43419;SDS011;29017;51.514;-0.178;2023-05-20T12:36:27;6.03;;;1.08;;
43419;SDS011;29017;51.514;-0.178;2023-05-20T12:38:54;4.22;;;0.88;;
43419;SDS011;29017;51.514;-0.178;2023-05-20T12:41:22;4.90;;;0.70;;
43419;SDS011;29017;51.514;-0.178;2023-05-20T12:43:49;5.05;;;0.80;;
43419;SDS011;29017;51.514;-0.178;2023-05-20T12:46:17;5.65;;;0.90;;
43419;SDS011;29017;51.514;-0.178;2023-05-20T12:48:44;3.42;;;0.80;;
43419;SDS011;29017;51.514;-0.178;2023-05-20T12:51:11;3.28;;;0.70;;
43419;SDS011;29017;51.514;-0.178;2023-05-20T12:53:38;7.22;;;1.10;;
43419;SDS011;29017;51.514;-0.178;2023-05-20T12:56:06;5.50;;;1.10;;
43419;SDS011;29017;51.514;-0.178;2023-05-20T12:58:33;6.68;;;1.10;;
43419;SDS011;29017;51.514;-0.178;2023-05-20T13:01:00;11.27;;;0.90;;
43419;SDS011;29017;51.514;-0.178;2023-05-20T13:03:28;3.17;;;0.70;;
43419;SDS011;29017;51.514;-0.178;2023-05-20T13:05:55;3.97;;;0.70;;
43419;SDS011;29017;51.514;-0.178;2023-05-20T13:08:22;5.15;;;0.90;;
43419;SDS011;29017;51.514;-0.178;2023-05-20T13:10:51;4.35;;;0.80;;
43419;SDS011;29017;51.514;-0.178;2023-05-20T13:13:19;3.53;;;0.50;;
43419;SDS011;29017;51.514;-0.178;2023-05-20T13:15:47;3.53;;;0.77;;
43419;SDS011;29017;51.514;-0.178;2023-05-20T13:18:15;2.75;;;0.63;;
43419;SDS011;29017;51.514;-0.178;2023-05-20T13:20:42;5.15;;;0.80;;
43419;SDS011;29017;51.514;-0.178;2023-05-20T13:23:10;6.57;;;0.70;;
43419;SDS011;29017;51.514;-0.178;2023-05-20T13:25:37;3.83;;;0.60;;
43419;SDS011;29017;51.514;-0.178;2023-05-20T13:28:04;3.47;;;0.70;;
43419;SDS011;29017;51.514;-0.178;2023-05-20T13:30:32;3.50;;;0.60;;
43419;SDS011;29017;51.514;-0.178;2023-05-20T13:33:11;4.00;;;0.60;;
43419;SDS011;29017;51.514;-0.178;2023-05-20T13:35:38;2.05;;;0.50;;
43419;SDS011;29017;51.514;-0.178;2023-05-20T13:38:05;3.10;;;0.57;;
43419;SDS011;29017;51.514;-0.178;2023-05-20T13:40:33;2.45;;;0.60;;
43419;SDS011;29017;51.514;-0.178;2023-05-20T13:43:00;3.53;;;0.60;;
43419;SDS011;29017;51.514;-0.178;2023-05-20T13:45:27;2.85;;;0.50;;
43419;SDS011;29017;51.514;-0.178;2023-05-20T13:47:55;2.33;;;0.60;;
43419;SDS011;29017;51.514;-0.178;2023-05-20T13:50:22;7.10;;;0.60;;
43419;SDS011;29017;51.514;-0.178;2023-05-20T13:52:49;6.82;;;0.90;;
43419;SDS011;29017;51.514;-0.178;2023-05-20T13:55:17;2.97;;;0.50;;
43419;SDS011;29017;51.514;-0.178;2023-05-20T13:57:44;5.45;;;0.70;;
43419;SDS011;29017;51.514;-0.178;2023-05-20T14:00:12;3.95;;;0.60;;
43419;SDS011;29017;51.514;-0.178;2023-05-20T14:02:40;2.80;;;0.70;;
43419;SDS011;29017;51.514;-0.178;2023-05-20T14:05:07;3.10;;;0.45;;
43419;SDS011;29017;51.514;-0.178;2023-05-20T14:07:35;4.30;;;0.65;;
43419;SDS011;29017;51.514;-0.178;2023-05-20T14:10:02;2.22;;;0.75;;
43419;SDS011;29017;51.514;-0.178;2023-05-20T14:12:30;5.93;;;0.73;;
43419;SDS011;29017;51.514;-0.178;2023-05-20T14:14:57;3.47;;;0.50;;
43419;SDS011;29017;51.514;-0.178;2023-05-20T14:17:24;4.43;;;0.77;;
43419;SDS011;29017;51.514;-0.178;2023-05-20T14:19:52;4.47;;;0.75;;
43419;SDS011;29017;51.514;-0.178;2023-05-20T14:22:19;4.35;;;0.60;;
43419;SDS011;29017;51.514;-0.178;2023-05-20T14:24:49;3.10;;;0.73;;
43419;SDS011;29017;51.514;-0.178;2023-05-20T14:27:16;4.45;;;0.60;;
43419;SDS011;29017;51.514;-0.178;2023-05-20T14:29:43;4.07;;;0.80;;
43419;SDS011;29017;51.514;-0.178;2023-05-20T14:32:11;2.28;;;0.55;;
43419;SDS011;29017;51.514;-0.178;2023-05-20T14:34:39;5.93;;;1.15;;
43419;SDS011;29017;51.514;-0.178;2023-05-20T14:37:07;4.63;;;0.77;;
43419;SDS011;29017;51.514;-0.178;2023-05-20T14:39:35;2.50;;;0.60;;
43419;SDS011;29017;51.514;-0.178;2023-05-20T14:42:03;2.97;;;0.60;;
43419;SDS011;29017;51.514;-0.178;2023-05-20T14:44:31;4.28;;;0.60;;
43419;SDS011;29017;51.514;-0.178;2023-05-20T14:46:58;4.68;;;0.70;;
43419;SDS011;29017;51.514;-0.178;2023-05-20T14:49:26;3.92;;;0.50;;
43419;SDS011;29017;51.514;-0.178;2023-05-20T14:51:53;3.97;;;0.80;;